sensor_id;sensor_type;location;lat;lon;timestamp;temperature;humidity
21592;DHT22;10958;50.892;3.992;2022-07-25T00:01:59;25.30;99.90
21592;DHT22;10958;50.892;3.992;2022-07-25T00:04:24;25.50;99.90
21592;DHT22;10958;50.892;3.992;2022-07-25T00:06:50;25.10;99.90
21592;DHT22;10958;50.892;3.992;2022-07-25T00:09:16;25.00;99.90
21592;DHT22;10958;50.892;3.992;2022-07-25T00:11:41;25.10;99.90
21592;DHT22;10958;50.892;3.992;2022-07-25T00:14:07;25.30;99.90
21592;DHT22;10958;50.892;3.992;2022-07-25T00:16:33;25.40;99.90
21592;DHT22;10958;50.892;3.992;2022-07-25T00:18:59;25.00;99.90
21592;DHT22;10958;50.892;3.992;2022-07-25T00:21:24;25.00;99.90
21592;DHT22;10958;50.892;3.992;2022-07-25T00:23:50;25.00;99.90
21592;DHT22;10958;50.892;3.992;2022-07-25T00:26:16;25.20;99.90
21592;DHT22;10958;50.892;3.992;2022-07-25T00:28:42;25.40;99.90
21592;DHT22;10958;50.892;3.992;2022-07-25T00:31:08;25.20;99.90
21592;DHT22;10958;50.892;3.992;2022-07-25T00:33:34;25.20;99.90
21592;DHT22;10958;50.892;3.992;2022-07-25T00:35:59;25.20;99.90
21592;DHT22;10958;50.892;3.992;2022-07-25T00:38:25;25.20;99.90
21592;DHT22;10958;50.892;3.992;2022-07-25T00:40:51;25.10;99.90
21592;DHT22;10958;50.892;3.992;2022-07-25T00:43:16;25.00;99.90
21592;DHT22;10958;50.892;3.992;2022-07-25T00:45:42;25.00;99.90
21592;DHT22;10958;50.892;3.992;2022-07-25T00:48:08;25.00;99.90
21592;DHT22;10958;50.892;3.992;2022-07-25T00:50:34;24.90;99.90
21592;DHT22;10958;50.892;3.992;2022-07-25T00:53:00;24.90;99.90
21592;DHT22;10958;50.892;3.992;2022-07-25T00:55:26;24.80;99.90
21592;DHT22;10958;50.892;3.992;2022-07-25T00:57:52;24.80;99.90
21592;DHT22;10958;50.892;3.992;2022-07-25T01:00:18;24.70;99.90
21592;DHT22;10958;50.892;3.992;2022-07-25T01:02:44;24.70;99.90
21592;DHT22;10958;50.892;3.992;2022-07-25T01:05:10;24.60;99.90
21592;DHT22;10958;50.892;3.992;2022-07-25T01:07:36;24.40;99.90
21592;DHT22;10958;50.892;3.992;2022-07-25T01:10:03;24.40;99.90
21592;DHT22;10958;50.892;3.992;2022-07-25T01:12:29;24.40;99.90
21592;DHT22;10958;50.892;3.992;2022-07-25T01:14:56;24.20;99.90
21592;DHT22;10958;50.892;3.992;2022-07-25T01:17:22;24.30;99.90
21592;DHT22;10958;50.892;3.992;2022-07-25T01:19:48;24.30;99.90
21592;DHT22;10958;50.892;3.992;2022-07-25T01:22:15;23.90;99.90
21592;DHT22;10958;50.892;3.992;2022-07-25T01:24:41;23.80;99.90
21592;DHT22;10958;50.892;3.992;2022-07-25T01:27:07;23.90;99.90
21592;DHT22;10958;50.892;3.992;2022-07-25T01:29:33;23.80;99.90
21592;DHT22;10958;50.892;3.992;2022-07-25T01:31:58;23.90;99.90
21592;DHT22;10958;50.892;3.992;2022-07-25T01:34:24;23.90;99.90
21592;DHT22;10958;50.892;3.992;2022-07-25T01:36:50;24.10;99.90
21592;DHT22;10958;50.892;3.992;2022-07-25T01:39:15;24.00;99.90
21592;DHT22;10958;50.892;3.992;2022-07-25T01:41:41;23.70;99.90
21592;DHT22;10958;50.892;3.992;2022-07-25T01:44:06;23.70;99.90
21592;DHT22;10958;50.892;3.992;2022-07-25T01:46:32;23.70;99.90
21592;DHT22;10958;50.892;3.992;2022-07-25T01:48:58;23.60;99.90
21592;DHT22;10958;50.892;3.992;2022-07-25T01:51:23;23.60;99.90
21592;DHT22;10958;50.892;3.992;2022-07-25T01:53:49;23.70;99.90
21592;DHT22;10958;50.892;3.992;2022-07-25T01:56:15;23.80;99.90
21592;DHT22;10958;50.892;3.992;2022-07-25T01:58:40;23.80;99.90
21592;DHT22;10958;50.892;3.992;2022-07-25T02:01:06;23.60;99.90
21592;DHT22;10958;50.892;3.992;2022-07-25T02:03:32;23.60;99.90
21592;DHT22;10958;50.892;3.992;2022-07-25T02:06:05;23.70;99.90
21592;DHT22;10958;50.892;3.992;2022-07-25T02:08:32;23.50;99.90
21592;DHT22;10958;50.892;3.992;2022-07-25T02:10:58;23.40;99.90
21592;DHT22;10958;50.892;3.992;2022-07-25T02:13:26;23.50;99.90
21592;DHT22;10958;50.892;3.992;2022-07-25T02:15:52;23.50;99.90
21592;DHT22;10958;50.892;3.992;2022-07-25T02:18:18;23.50;99.90
21592;DHT22;10958;50.892;3.992;2022-07-25T02:20:44;23.60;99.90
21592;DHT22;10958;50.892;3.992;2022-07-25T02:23:10;23.60;99.90
21592;DHT22;10958;50.892;3.992;2022-07-25T02:25:36;23.50;99.90
21592;DHT22;10958;50.892;3.992;2022-07-25T02:28:01;23.30;99.90
21592;DHT22;10958;50.892;3.992;2022-07-25T02:30:27;23.20;99.90
21592;DHT22;10958;50.892;3.992;2022-07-25T02:32:53;23.40;99.90
21592;DHT22;10958;50.892;3.992;2022-07-25T02:35:19;23.60;99.90
21592;DHT22;10958;50.892;3.992;2022-07-25T02:37:44;23.60;99.90
21592;DHT22;10958;50.892;3.992;2022-07-25T02:40:11;23.30;99.90
21592;DHT22;10958;50.892;3.992;2022-07-25T02:42:37;22.80;99.90
21592;DHT22;10958;50.892;3.992;2022-07-25T02:45:03;22.70;99.90
21592;DHT22;10958;50.892;3.992;2022-07-25T02:47:29;22.90;99.90
21592;DHT22;10958;50.892;3.992;2022-07-25T02:49:54;23.10;99.90
21592;DHT22;10958;50.892;3.992;2022-07-25T02:52:20;22.60;99.90
21592;DHT22;10958;50.892;3.992;2022-07-25T02:54:46;22.10;99.90
21592;DHT22;10958;50.892;3.992;2022-07-25T02:57:11;21.60;99.90
21592;DHT22;10958;50.892;3.992;2022-07-25T02:59:37;21.40;99.90
21592;DHT22;10958;50.892;3.992;2022-07-25T03:02:02;21.20;99.90
21592;DHT22;10958;50.892;3.992;2022-07-25T03:04:28;21.20;99.90
21592;DHT22;10958;50.892;3.992;2022-07-25T03:06:55;21.40;99.90
21592;DHT22;10958;50.892;3.992;2022-07-25T03:09:20;21.80;99.90
21592;DHT22;10958;50.892;3.992;2022-07-25T03:11:46;22.20;99.90
21592;DHT22;10958;50.892;3.992;2022-07-25T03:14:12;22.40;99.90
21592;DHT22;10958;50.892;3.992;2022-07-25T03:16:37;22.60;99.90
21592;DHT22;10958;50.892;3.992;2022-07-25T03:19:03;22.60;99.90
21592;DHT22;10958;50.892;3.992;2022-07-25T03:21:29;22.70;99.90
21592;DHT22;10958;50.892;3.992;2022-07-25T03:23:54;22.50;99.90
21592;DHT22;10958;50.892;3.992;2022-07-25T03:26:20;22.20;99.90
21592;DHT22;10958;50.892;3.992;2022-07-25T03:28:46;21.90;99.90
21592;DHT22;10958;50.892;3.992;2022-07-25T03:31:11;21.70;99.90
21592;DHT22;10958;50.892;3.992;2022-07-25T03:33:37;21.80;99.90
21592;DHT22;10958;50.892;3.992;2022-07-25T03:36:03;21.80;99.90
21592;DHT22;10958;50.892;3.992;2022-07-25T03:38:28;21.70;99.90
21592;DHT22;10958;50.892;3.992;2022-07-25T03:40:54;21.50;99.90
21592;DHT22;10958;50.892;3.992;2022-07-25T03:43:19;21.40;99.90
21592;DHT22;10958;50.892;3.992;2022-07-25T03:45:45;21.50;99.90
21592;DHT22;10958;50.892;3.992;2022-07-25T03:48:11;21.40;99.90
21592;DHT22;10958;50.892;3.992;2022-07-25T03:50:36;21.40;99.90
21592;DHT22;10958;50.892;3.992;2022-07-25T03:53:02;21.20;99.90
21592;DHT22;10958;50.892;3.992;2022-07-25T03:55:28;21.20;99.90
21592;DHT22;10958;50.892;3.992;2022-07-25T03:57:54;21.20;99.90
21592;DHT22;10958;50.892;3.992;2022-07-25T04:00:19;21.10;99.90
21592;DHT22;10958;50.892;3.992;2022-07-25T04:02:45;21.00;99.90
21592;DHT22;10958;50.892;3.992;2022-07-25T04:05:11;20.90;99.90
21592;DHT22;10958;50.892;3.992;2022-07-25T04:07:37;20.90;99.90
21592;DHT22;10958;50.892;3.992;2022-07-25T04:10:04;20.90;99.90
21592;DHT22;10958;50.892;3.992;2022-07-25T04:12:30;20.90;99.90
21592;DHT22;10958;50.892;3.992;2022-07-25T04:14:56;20.90;99.90
21592;DHT22;10958;50.892;3.992;2022-07-25T04:17:22;20.90;99.90
21592;DHT22;10958;50.892;3.992;2022-07-25T04:19:48;20.90;99.90
21592;DHT22;10958;50.892;3.992;2022-07-25T04:22:14;20.90;99.90
21592;DHT22;10958;50.892;3.992;2022-07-25T04:24:39;20.80;99.90
21592;DHT22;10958;50.892;3.992;2022-07-25T04:27:05;20.70;99.90
21592;DHT22;10958;50.892;3.992;2022-07-25T04:29:31;20.70;99.90
21592;DHT22;10958;50.892;3.992;2022-07-25T04:31:56;20.60;99.90
21592;DHT22;10958;50.892;3.992;2022-07-25T04:34:22;20.70;99.90
21592;DHT22;10958;50.892;3.992;2022-07-25T04:36:48;20.70;99.90
21592;DHT22;10958;50.892;3.992;2022-07-25T04:39:14;20.60;99.90
21592;DHT22;10958;50.892;3.992;2022-07-25T04:41:39;20.70;99.90
21592;DHT22;10958;50.892;3.992;2022-07-25T04:44:05;20.60;99.90
21592;DHT22;10958;50.892;3.992;2022-07-25T04:46:32;20.60;99.90
21592;DHT22;10958;50.892;3.992;2022-07-25T04:48:58;20.50;99.90
21592;DHT22;10958;50.892;3.992;2022-07-25T04:51:24;20.50;99.90
21592;DHT22;10958;50.892;3.992;2022-07-25T04:53:49;20.50;99.90
21592;DHT22;10958;50.892;3.992;2022-07-25T04:56:15;20.40;99.90
21592;DHT22;10958;50.892;3.992;2022-07-25T04:58:41;20.50;99.90
21592;DHT22;10958;50.892;3.992;2022-07-25T05:01:06;20.50;99.90
21592;DHT22;10958;50.892;3.992;2022-07-25T05:03:32;20.50;99.90
21592;DHT22;10958;50.892;3.992;2022-07-25T05:05:58;20.40;99.90
21592;DHT22;10958;50.892;3.992;2022-07-25T05:08:23;20.40;99.90
21592;DHT22;10958;50.892;3.992;2022-07-25T05:10:49;20.50;99.90
21592;DHT22;10958;50.892;3.992;2022-07-25T05:13:15;20.40;99.90
21592;DHT22;10958;50.892;3.992;2022-07-25T05:15:41;20.50;99.90
21592;DHT22;10958;50.892;3.992;2022-07-25T05:18:06;20.40;99.90
21592;DHT22;10958;50.892;3.992;2022-07-25T05:20:32;20.40;99.90
21592;DHT22;10958;50.892;3.992;2022-07-25T05:22:58;20.70;99.90
21592;DHT22;10958;50.892;3.992;2022-07-25T05:25:23;21.10;99.90
21592;DHT22;10958;50.892;3.992;2022-07-25T05:27:49;21.50;99.90
21592;DHT22;10958;50.892;3.992;2022-07-25T05:30:16;21.80;99.90
21592;DHT22;10958;50.892;3.992;2022-07-25T05:32:41;22.10;99.90
21592;DHT22;10958;50.892;3.992;2022-07-25T05:35:08;22.00;99.90
21592;DHT22;10958;50.892;3.992;2022-07-25T05:37:34;22.00;99.90
21592;DHT22;10958;50.892;3.992;2022-07-25T05:40:00;22.00;99.90
21592;DHT22;10958;50.892;3.992;2022-07-25T05:42:27;22.20;99.90
21592;DHT22;10958;50.892;3.992;2022-07-25T05:44:53;22.20;99.90
21592;DHT22;10958;50.892;3.992;2022-07-25T05:47:18;22.40;99.90
21592;DHT22;10958;50.892;3.992;2022-07-25T05:49:44;22.60;99.90
21592;DHT22;10958;50.892;3.992;2022-07-25T05:52:10;22.20;99.90
21592;DHT22;10958;50.892;3.992;2022-07-25T05:54:35;22.00;99.90
21592;DHT22;10958;50.892;3.992;2022-07-25T05:57:01;21.80;99.90
21592;DHT22;10958;50.892;3.992;2022-07-25T05:59:27;21.70;99.90
21592;DHT22;10958;50.892;3.992;2022-07-25T06:01:53;21.70;99.90
21592;DHT22;10958;50.892;3.992;2022-07-25T06:04:18;21.50;99.90
21592;DHT22;10958;50.892;3.992;2022-07-25T06:06:44;21.40;99.90
21592;DHT22;10958;50.892;3.992;2022-07-25T06:09:16;21.20;99.90
21592;DHT22;10958;50.892;3.992;2022-07-25T06:11:42;21.30;99.90
21592;DHT22;10958;50.892;3.992;2022-07-25T06:14:07;21.70;99.90
21592;DHT22;10958;50.892;3.992;2022-07-25T06:16:33;21.50;99.90
21592;DHT22;10958;50.892;3.992;2022-07-25T06:18:59;21.60;99.90
21592;DHT22;10958;50.892;3.992;2022-07-25T06:21:24;21.50;99.90
21592;DHT22;10958;50.892;3.992;2022-07-25T06:23:50;21.50;99.90
21592;DHT22;10958;50.892;3.992;2022-07-25T06:26:16;21.50;99.90
21592;DHT22;10958;50.892;3.992;2022-07-25T06:28:41;21.60;99.90
21592;DHT22;10958;50.892;3.992;2022-07-25T06:31:07;22.10;99.90
21592;DHT22;10958;50.892;3.992;2022-07-25T06:33:33;22.70;99.90
21592;DHT22;10958;50.892;3.992;2022-07-25T06:35:58;22.80;99.90
21592;DHT22;10958;50.892;3.992;2022-07-25T06:38:24;22.70;99.90
21592;DHT22;10958;50.892;3.992;2022-07-25T06:40:50;22.70;99.90
21592;DHT22;10958;50.892;3.992;2022-07-25T06:43:15;22.90;99.90
21592;DHT22;10958;50.892;3.992;2022-07-25T06:45:41;23.70;99.90
21592;DHT22;10958;50.892;3.992;2022-07-25T06:48:12;24.80;99.90
21592;DHT22;10958;50.892;3.992;2022-07-25T06:50:38;25.20;99.90
21592;DHT22;10958;50.892;3.992;2022-07-25T06:53:03;24.90;99.90
21592;DHT22;10958;50.892;3.992;2022-07-25T06:55:29;23.90;99.90
21592;DHT22;10958;50.892;3.992;2022-07-25T06:57:55;23.90;99.90
21592;DHT22;10958;50.892;3.992;2022-07-25T07:00:20;24.80;99.90
21592;DHT22;10958;50.892;3.992;2022-07-25T07:02:48;26.00;99.90
21592;DHT22;10958;50.892;3.992;2022-07-25T07:05:14;27.20;99.90
21592;DHT22;10958;50.892;3.992;2022-07-25T07:07:40;27.40;99.90
21592;DHT22;10958;50.892;3.992;2022-07-25T07:10:05;27.20;99.90
21592;DHT22;10958;50.892;3.992;2022-07-25T07:12:31;26.80;99.90
21592;DHT22;10958;50.892;3.992;2022-07-25T07:14:57;26.60;99.90
21592;DHT22;10958;50.892;3.992;2022-07-25T07:17:22;26.00;99.90
21592;DHT22;10958;50.892;3.992;2022-07-25T07:19:48;26.30;99.90
21592;DHT22;10958;50.892;3.992;2022-07-25T07:22:14;27.50;99.90
21592;DHT22;10958;50.892;3.992;2022-07-25T07:24:40;28.30;99.90
21592;DHT22;10958;50.892;3.992;2022-07-25T07:27:05;27.90;99.90
21592;DHT22;10958;50.892;3.992;2022-07-25T07:29:31;28.30;99.90
21592;DHT22;10958;50.892;3.992;2022-07-25T07:31:56;28.80;99.90
21592;DHT22;10958;50.892;3.992;2022-07-25T07:34:22;28.80;99.90
21592;DHT22;10958;50.892;3.992;2022-07-25T07:36:48;29.10;99.90
21592;DHT22;10958;50.892;3.992;2022-07-25T07:39:13;29.00;99.90
21592;DHT22;10958;50.892;3.992;2022-07-25T07:41:41;28.90;99.90
21592;DHT22;10958;50.892;3.992;2022-07-25T07:44:06;28.60;99.90
21592;DHT22;10958;50.892;3.992;2022-07-25T07:46:32;28.30;99.90
21592;DHT22;10958;50.892;3.992;2022-07-25T07:48:58;27.70;99.90
21592;DHT22;10958;50.892;3.992;2022-07-25T07:51:23;28.40;99.90
21592;DHT22;10958;50.892;3.992;2022-07-25T07:53:49;28.90;99.90
21592;DHT22;10958;50.892;3.992;2022-07-25T07:56:33;28.60;99.90
21592;DHT22;10958;50.892;3.992;2022-07-25T07:58:59;29.10;99.90
21592;DHT22;10958;50.892;3.992;2022-07-25T08:01:24;28.50;99.90
21592;DHT22;10958;50.892;3.992;2022-07-25T08:03:51;28.20;99.90
21592;DHT22;10958;50.892;3.992;2022-07-25T08:06:17;28.50;99.90
21592;DHT22;10958;50.892;3.992;2022-07-25T08:08:43;29.50;99.90
21592;DHT22;10958;50.892;3.992;2022-07-25T08:11:08;29.60;99.90
21592;DHT22;10958;50.892;3.992;2022-07-25T08:13:35;30.20;99.90
21592;DHT22;10958;50.892;3.992;2022-07-25T08:16:02;30.20;99.90
21592;DHT22;10958;50.892;3.992;2022-07-25T08:18:29;30.50;99.90
21592;DHT22;10958;50.892;3.992;2022-07-25T08:20:56;29.80;99.90
21592;DHT22;10958;50.892;3.992;2022-07-25T08:23:21;30.40;99.90
21592;DHT22;10958;50.892;3.992;2022-07-25T08:25:47;29.60;99.90
21592;DHT22;10958;50.892;3.992;2022-07-25T08:28:13;30.10;99.90
21592;DHT22;10958;50.892;3.992;2022-07-25T08:30:39;30.60;99.90
21592;DHT22;10958;50.892;3.992;2022-07-25T08:33:07;31.20;99.90
21592;DHT22;10958;50.892;3.992;2022-07-25T08:35:35;31.40;99.90
21592;DHT22;10958;50.892;3.992;2022-07-25T08:38:02;30.80;99.90
21592;DHT22;10958;50.892;3.992;2022-07-25T08:40:29;30.60;99.90
21592;DHT22;10958;50.892;3.992;2022-07-25T08:42:56;29.90;99.90
21592;DHT22;10958;50.892;3.992;2022-07-25T08:45:24;29.80;99.90
21592;DHT22;10958;50.892;3.992;2022-07-25T08:47:51;30.40;99.90
21592;DHT22;10958;50.892;3.992;2022-07-25T08:50:26;29.40;99.90
21592;DHT22;10958;50.892;3.992;2022-07-25T08:52:53;29.70;99.90
21592;DHT22;10958;50.892;3.992;2022-07-25T08:55:21;29.90;99.90
21592;DHT22;10958;50.892;3.992;2022-07-25T08:57:50;30.10;99.90
21592;DHT22;10958;50.892;3.992;2022-07-25T09:00:21;28.90;99.90
21592;DHT22;10958;50.892;3.992;2022-07-25T09:02:58;28.90;99.90
21592;DHT22;10958;50.892;3.992;2022-07-25T09:05:26;28.50;99.90
21592;DHT22;10958;50.892;3.992;2022-07-25T09:07:54;28.50;99.90
21592;DHT22;10958;50.892;3.992;2022-07-25T09:10:26;28.50;99.90
21592;DHT22;10958;50.892;3.992;2022-07-25T09:12:58;29.10;99.90
21592;DHT22;10958;50.892;3.992;2022-07-25T09:15:32;29.20;99.90
21592;DHT22;10958;50.892;3.992;2022-07-25T09:18:10;29.90;99.90
21592;DHT22;10958;50.892;3.992;2022-07-25T09:23:04;30.20;99.90
21592;DHT22;10958;50.892;3.992;2022-07-25T09:25:30;30.90;99.90
21592;DHT22;10958;50.892;3.992;2022-07-25T09:28:12;30.50;99.90
21592;DHT22;10958;50.892;3.992;2022-07-25T09:30:38;29.80;99.90
21592;DHT22;10958;50.892;3.992;2022-07-25T09:33:04;29.80;99.90
21592;DHT22;10958;50.892;3.992;2022-07-25T09:35:34;29.80;99.90
21592;DHT22;10958;50.892;3.992;2022-07-25T09:38:13;29.00;99.90
21592;DHT22;10958;50.892;3.992;2022-07-25T09:40:40;29.00;99.90
21592;DHT22;10958;50.892;3.992;2022-07-25T09:43:06;29.10;99.90
21592;DHT22;10958;50.892;3.992;2022-07-25T09:45:33;29.40;99.90
21592;DHT22;10958;50.892;3.992;2022-07-25T09:48:03;29.00;99.90
21592;DHT22;10958;50.892;3.992;2022-07-25T09:50:31;28.30;99.90
21592;DHT22;10958;50.892;3.992;2022-07-25T09:53:00;28.30;99.90
21592;DHT22;10958;50.892;3.992;2022-07-25T09:55:27;28.30;99.90
21592;DHT22;10958;50.892;3.992;2022-07-25T10:03:52;28.40;99.90
21592;DHT22;10958;50.892;3.992;2022-07-25T10:09:15;26.90;99.90
21592;DHT22;10958;50.892;3.992;2022-07-25T10:12:10;26.80;99.90
21592;DHT22;10958;50.892;3.992;2022-07-25T10:14:37;26.80;99.90
21592;DHT22;10958;50.892;3.992;2022-07-25T10:17:04;26.40;99.90
21592;DHT22;10958;50.892;3.992;2022-07-25T10:19:43;26.20;99.90
21592;DHT22;10958;50.892;3.992;2022-07-25T10:22:10;25.90;99.90
21592;DHT22;10958;50.892;3.992;2022-07-25T10:24:36;25.90;99.90
21592;DHT22;10958;50.892;3.992;2022-07-25T10:27:20;25.50;99.90
21592;DHT22;10958;50.892;3.992;2022-07-25T10:29:51;25.60;99.90
21592;DHT22;10958;50.892;3.992;2022-07-25T10:32:17;25.50;99.90
21592;DHT22;10958;50.892;3.992;2022-07-25T10:34:52;25.40;99.90
21592;DHT22;10958;50.892;3.992;2022-07-25T10:37:18;25.40;99.90
21592;DHT22;10958;50.892;3.992;2022-07-25T10:39:50;25.00;99.90
21592;DHT22;10958;50.892;3.992;2022-07-25T10:42:19;24.80;99.90
21592;DHT22;10958;50.892;3.992;2022-07-25T10:44:56;25.00;99.90
21592;DHT22;10958;50.892;3.992;2022-07-25T10:47:23;25.20;99.90
21592;DHT22;10958;50.892;3.992;2022-07-25T10:49:56;25.20;99.90
21592;DHT22;10958;50.892;3.992;2022-07-25T10:52:27;25.40;99.90
21592;DHT22;10958;50.892;3.992;2022-07-25T10:55:01;24.90;99.90
21592;DHT22;10958;50.892;3.992;2022-07-25T10:57:27;24.70;99.90
21592;DHT22;10958;50.892;3.992;2022-07-25T10:59:53;24.60;99.90
21592;DHT22;10958;50.892;3.992;2022-07-25T11:02:28;24.70;99.90
21592;DHT22;10958;50.892;3.992;2022-07-25T11:04:59;24.60;99.90
21592;DHT22;10958;50.892;3.992;2022-07-25T11:07:26;24.40;99.90
21592;DHT22;10958;50.892;3.992;2022-07-25T11:10:01;24.40;99.90
21592;DHT22;10958;50.892;3.992;2022-07-25T11:12:28;24.60;99.90
21592;DHT22;10958;50.892;3.992;2022-07-25T11:15:06;24.90;99.90
21592;DHT22;10958;50.892;3.992;2022-07-25T11:17:32;25.00;99.90
21592;DHT22;10958;50.892;3.992;2022-07-25T11:20:09;25.00;99.90
21592;DHT22;10958;50.892;3.992;2022-07-25T11:22:35;25.40;99.90
21592;DHT22;10958;50.892;3.992;2022-07-25T11:25:08;25.60;99.90
21592;DHT22;10958;50.892;3.992;2022-07-25T11:27:34;25.90;99.90
21592;DHT22;10958;50.892;3.992;2022-07-25T11:30:17;26.10;99.90
21592;DHT22;10958;50.892;3.992;2022-07-25T11:32:46;26.20;99.90
21592;DHT22;10958;50.892;3.992;2022-07-25T11:35:13;26.20;99.90
21592;DHT22;10958;50.892;3.992;2022-07-25T11:37:41;26.30;99.90
21592;DHT22;10958;50.892;3.992;2022-07-25T11:40:07;26.40;99.90
21592;DHT22;10958;50.892;3.992;2022-07-25T11:42:45;26.60;99.90
21592;DHT22;10958;50.892;3.992;2022-07-25T11:45:23;26.90;99.90
21592;DHT22;10958;50.892;3.992;2022-07-25T11:48:07;27.20;99.90
21592;DHT22;10958;50.892;3.992;2022-07-25T11:50:35;27.60;99.90
21592;DHT22;10958;50.892;3.992;2022-07-25T11:53:03;27.30;99.90
21592;DHT22;10958;50.892;3.992;2022-07-25T11:55:32;26.80;99.90
21592;DHT22;10958;50.892;3.992;2022-07-25T11:58:00;26.50;99.90
21592;DHT22;10958;50.892;3.992;2022-07-25T12:00:27;26.30;99.90
21592;DHT22;10958;50.892;3.992;2022-07-25T12:02:53;25.80;99.90
21592;DHT22;10958;50.892;3.992;2022-07-25T12:05:21;25.50;99.90
21592;DHT22;10958;50.892;3.992;2022-07-25T12:07:52;25.50;99.90
21592;DHT22;10958;50.892;3.992;2022-07-25T12:10:30;25.90;99.90
21592;DHT22;10958;50.892;3.992;2022-07-25T12:12:56;26.20;99.90
21592;DHT22;10958;50.892;3.992;2022-07-25T12:15:27;26.20;99.90
21592;DHT22;10958;50.892;3.992;2022-07-25T12:17:55;26.30;99.90
21592;DHT22;10958;50.892;3.992;2022-07-25T12:20:26;26.20;99.90
21592;DHT22;10958;50.892;3.992;2022-07-25T12:22:54;26.10;99.90
21592;DHT22;10958;50.892;3.992;2022-07-25T12:25:20;26.20;99.90
21592;DHT22;10958;50.892;3.992;2022-07-25T12:27:46;26.20;99.90
21592;DHT22;10958;50.892;3.992;2022-07-25T12:30:12;26.30;99.90
21592;DHT22;10958;50.892;3.992;2022-07-25T12:32:39;26.20;99.90
21592;DHT22;10958;50.892;3.992;2022-07-25T12:35:07;26.40;99.90
21592;DHT22;10958;50.892;3.992;2022-07-25T12:37:33;26.40;99.90
21592;DHT22;10958;50.892;3.992;2022-07-25T12:39:59;26.40;99.90
21592;DHT22;10958;50.892;3.992;2022-07-25T12:42:25;26.30;99.90
21592;DHT22;10958;50.892;3.992;2022-07-25T12:44:53;26.50;99.90
21592;DHT22;10958;50.892;3.992;2022-07-25T12:47:20;26.50;99.90
21592;DHT22;10958;50.892;3.992;2022-07-25T12:49:46;26.30;99.90
21592;DHT22;10958;50.892;3.992;2022-07-25T12:52:11;26.30;99.90
21592;DHT22;10958;50.892;3.992;2022-07-25T12:54:37;26.30;99.90
21592;DHT22;10958;50.892;3.992;2022-07-25T12:57:03;26.30;99.90
21592;DHT22;10958;50.892;3.992;2022-07-25T12:59:28;26.40;99.90
21592;DHT22;10958;50.892;3.992;2022-07-25T13:01:54;26.40;99.90
21592;DHT22;10958;50.892;3.992;2022-07-25T13:04:20;26.40;99.90
21592;DHT22;10958;50.892;3.992;2022-07-25T13:06:46;26.40;99.90
21592;DHT22;10958;50.892;3.992;2022-07-25T13:09:12;26.50;99.90
21592;DHT22;10958;50.892;3.992;2022-07-25T13:11:37;26.60;99.90
21592;DHT22;10958;50.892;3.992;2022-07-25T13:14:03;26.60;99.90
21592;DHT22;10958;50.892;3.992;2022-07-25T13:16:29;26.40;99.90
21592;DHT22;10958;50.892;3.992;2022-07-25T13:18:54;26.50;99.90
21592;DHT22;10958;50.892;3.992;2022-07-25T13:21:20;26.40;99.90
21592;DHT22;10958;50.892;3.992;2022-07-25T13:23:46;26.00;99.90
21592;DHT22;10958;50.892;3.992;2022-07-25T13:26:12;25.90;99.90
21592;DHT22;10958;50.892;3.992;2022-07-25T13:28:38;25.90;99.90
21592;DHT22;10958;50.892;3.992;2022-07-25T13:31:04;25.70;99.90
21592;DHT22;10958;50.892;3.992;2022-07-25T13:33:33;25.70;99.90
21592;DHT22;10958;50.892;3.992;2022-07-25T13:35:59;25.80;99.90
21592;DHT22;10958;50.892;3.992;2022-07-25T13:38:24;25.70;99.90
21592;DHT22;10958;50.892;3.992;2022-07-25T13:40:50;25.80;99.90
21592;DHT22;10958;50.892;3.992;2022-07-25T13:43:16;25.70;99.90
21592;DHT22;10958;50.892;3.992;2022-07-25T13:45:42;26.00;99.90
21592;DHT22;10958;50.892;3.992;2022-07-25T13:48:08;26.20;99.90
21592;DHT22;10958;50.892;3.992;2022-07-25T13:50:34;26.40;99.90
21592;DHT22;10958;50.892;3.992;2022-07-25T13:53:00;26.50;99.90
21592;DHT22;10958;50.892;3.992;2022-07-25T13:55:27;26.40;99.90
21592;DHT22;10958;50.892;3.992;2022-07-25T13:57:53;26.30;99.90
21592;DHT22;10958;50.892;3.992;2022-07-25T14:00:18;26.10;99.90
21592;DHT22;10958;50.892;3.992;2022-07-25T14:02:44;26.00;99.90
21592;DHT22;10958;50.892;3.992;2022-07-25T14:05:11;26.00;99.90
21592;DHT22;10958;50.892;3.992;2022-07-25T14:07:38;25.90;99.90
21592;DHT22;10958;50.892;3.992;2022-07-25T14:10:05;25.80;99.90
21592;DHT22;10958;50.892;3.992;2022-07-25T14:12:33;25.90;99.90
21592;DHT22;10958;50.892;3.992;2022-07-25T14:14:59;26.10;99.90
21592;DHT22;10958;50.892;3.992;2022-07-25T14:17:25;25.90;99.90
21592;DHT22;10958;50.892;3.992;2022-07-25T14:19:50;26.10;99.90
21592;DHT22;10958;50.892;3.992;2022-07-25T14:22:17;26.30;99.90
21592;DHT22;10958;50.892;3.992;2022-07-25T14:24:43;26.30;99.90
21592;DHT22;10958;50.892;3.992;2022-07-25T14:27:08;26.10;99.90
21592;DHT22;10958;50.892;3.992;2022-07-25T14:29:36;25.90;99.90
21592;DHT22;10958;50.892;3.992;2022-07-25T14:32:03;26.10;99.90
21592;DHT22;10958;50.892;3.992;2022-07-25T14:34:29;26.20;99.90
21592;DHT22;10958;50.892;3.992;2022-07-25T14:36:55;26.20;99.90
21592;DHT22;10958;50.892;3.992;2022-07-25T14:39:21;26.00;99.90
21592;DHT22;10958;50.892;3.992;2022-07-25T14:41:46;26.00;99.90
21592;DHT22;10958;50.892;3.992;2022-07-25T14:44:12;26.00;99.90
21592;DHT22;10958;50.892;3.992;2022-07-25T14:46:38;25.70;99.90
21592;DHT22;10958;50.892;3.992;2022-07-25T14:49:05;25.80;99.90
21592;DHT22;10958;50.892;3.992;2022-07-25T14:51:31;26.00;99.90
21592;DHT22;10958;50.892;3.992;2022-07-25T14:53:57;26.10;99.90
21592;DHT22;10958;50.892;3.992;2022-07-25T14:56:23;26.20;99.90
21592;DHT22;10958;50.892;3.992;2022-07-25T14:58:49;26.20;99.90
21592;DHT22;10958;50.892;3.992;2022-07-25T15:01:14;26.20;99.90
21592;DHT22;10958;50.892;3.992;2022-07-25T15:03:43;26.10;99.90
21592;DHT22;10958;50.892;3.992;2022-07-25T15:06:09;26.20;99.90
21592;DHT22;10958;50.892;3.992;2022-07-25T15:08:36;25.90;99.90
21592;DHT22;10958;50.892;3.992;2022-07-25T15:11:03;25.70;99.90
21592;DHT22;10958;50.892;3.992;2022-07-25T15:13:29;25.80;99.90
21592;DHT22;10958;50.892;3.992;2022-07-25T15:15:55;25.80;99.90
21592;DHT22;10958;50.892;3.992;2022-07-25T15:18:21;25.80;99.90
21592;DHT22;10958;50.892;3.992;2022-07-25T15:20:47;25.60;99.90
21592;DHT22;10958;50.892;3.992;2022-07-25T15:23:13;25.70;99.90
21592;DHT22;10958;50.892;3.992;2022-07-25T15:25:39;25.80;99.90
21592;DHT22;10958;50.892;3.992;2022-07-25T15:28:05;25.80;99.90
21592;DHT22;10958;50.892;3.992;2022-07-25T15:30:30;25.80;99.90
21592;DHT22;10958;50.892;3.992;2022-07-25T15:32:56;25.70;99.90
21592;DHT22;10958;50.892;3.992;2022-07-25T15:35:22;25.50;99.90
21592;DHT22;10958;50.892;3.992;2022-07-25T15:37:47;25.50;99.90
21592;DHT22;10958;50.892;3.992;2022-07-25T15:40:13;25.60;99.90